Time;durP1;ratioP1;P1;durP2;ratioP2;P2;SDS_P1;SDS_P2;PMS_P1;PMS_P2;Temp;Humidity;BMP_temperature;BMP_pressure;BME280_temperature;BME280_humidity;BME280_pressure;Samples;Min_cycle;Max_cycle;Signal;HPM_P1;HPM_P2
2023/07/21 00:01:39;;;;;;;5.75;3.55;;;;;;;;;;5100376;28;20137;-62
2023/07/21 00:04:06;;;;;;;4.20;3.55;;;;;;;;;;5112638;27;20048;-64
2023/07/21 00:06:33;;;;;;;3.92;3.00;;;;;;;;;;5117186;27;20055;-64
2023/07/21 00:08:59;;;;;;;5.63;2.83;;;;;;;;;;5101021;27;20483;-67
2023/07/21 00:11:26;;;;;;;5.88;3.38;;;;;;;;;;5090452;28;20604;-65
2023/07/21 00:13:52;;;;;;;3.17;2.88;;;;;;;;;;5106210;27;20048;-66
2023/07/21 00:16:19;;;;;;;7.28;3.50;;;;;;;;;;5104839;28;20052;-66
2023/07/21 00:18:46;;;;;;;3.40;3.10;;;;;;;;;;5108835;27;20464;-67
2023/07/21 00:21:12;;;;;;;3.97;3.15;;;;;;;;;;5103731;27;20048;-66
2023/07/21 00:23:39;;;;;;;3.25;2.95;;;;;;;;;;5093934;28;20490;-65
2023/07/21 00:26:07;;;;;;;3.85;2.78;;;;;;;;;;5091230;28;20052;-64
2023/07/21 00:28:34;;;;;;;3.78;3.40;;;;;;;;;;5093939;27;20052;-65
2023/07/21 00:31:00;;;;;;;4.18;3.33;;;;;;;;;;5100877;28;20062;-63
2023/07/21 00:33:26;;;;;;;3.80;2.60;;;;;;;;;;5088753;27;20063;-67
2023/07/21 00:35:55;;;;;;;3.35;3.05;;;;;;;;;;5097435;27;20525;-66
2023/07/21 00:38:21;;;;;;;4.45;3.38;;;;;;;;;;5105568;27;20052;-67
2023/07/21 00:40:48;;;;;;;3.78;3.40;;;;;;;;;;5103926;27;20135;-66
2023/07/21 00:43:18;;;;;;;5.38;3.55;;;;;;;;;;5102215;27;20052;-64
2023/07/21 00:45:46;;;;;;;6.50;4.47;;;;;;;;;;5094061;27;20053;-66
2023/07/21 00:48:15;;;;;;;4.72;4.13;;;;;;;;;;5092490;27;20143;-67
2023/07/21 00:50:47;;;;;;;6.13;4.28;;;;;;;;;;5084889;27;20637;-67
2023/07/21 00:53:14;;;;;;;5.03;4.40;;;;;;;;;;5099235;27;20062;-66
2023/07/21 00:55:41;;;;;;;5.68;4.38;;;;;;;;;;5105246;27;20052;-66
2023/07/21 00:58:11;;;;;;;5.18;3.72;;;;;;;;;;5091232;27;20072;-63
2023/07/21 01:00:38;;;;;;;4.70;3.63;;;;;;;;;;5094448;27;20055;-67
2023/07/21 01:03:05;;;;;;;8.23;4.22;;;;;;;;;;5098991;27;20490;-67
2023/07/21 01:05:33;;;;;;;5.53;3.58;;;;;;;;;;5106365;27;20368;-66
2023/07/21 01:08:04;;;;;;;5.60;4.28;;;;;;;;;;5104021;27;20080;-67
2023/07/21 01:10:33;;;;;;;4.38;3.60;;;;;;;;;;5104940;27;20062;-64
2023/07/21 01:13:01;;;;;;;8.32;4.05;;;;;;;;;;5086637;27;20063;-64
2023/07/21 01:15:28;;;;;;;4.32;3.92;;;;;;;;;;5101340;27;20521;-67
2023/07/21 01:17:55;;;;;;;6.65;3.58;;;;;;;;;;5102230;28;20058;-63
2023/07/21 01:20:23;;;;;;;4.45;3.80;;;;;;;;;;5106102;27;20768;-63
2023/07/21 01:22:51;;;;;;;9.82;4.43;;;;;;;;;;5102636;28;20059;-63
2023/07/21 01:25:18;;;;;;;6.38;3.88;;;;;;;;;;5098865;27;20048;-65
2023/07/21 01:27:46;;;;;;;4.43;3.80;;;;;;;;;;5103257;27;20322;-67
2023/07/21 01:30:14;;;;;;;9.77;5.00;;;;;;;;;;5106329;27;20533;-63
2023/07/21 01:32:42;;;;;;;9.77;3.78;;;;;;;;;;5103990;28;20052;-64
2023/07/21 01:35:11;;;;;;;4.35;3.30;;;;;;;;;;5098909;27;20125;-61
2023/07/21 01:37:38;;;;;;;7.40;3.53;;;;;;;;;;5103629;27;20056;-66
2023/07/21 01:40:07;;;;;;;8.65;4.13;;;;;;;;;;5106557;27;20056;-67
2023/07/21 01:42:34;;;;;;;3.67;3.38;;;;;;;;;;5102305;27;20056;-66
2023/07/21 01:45:04;;;;;;;3.92;3.53;;;;;;;;;;5108569;27;20099;-63
2023/07/21 01:47:32;;;;;;;3.97;3.33;;;;;;;;;;5094888;27;20589;-66
2023/07/21 01:49:59;;;;;;;3.97;3.40;;;;;;;;;;5092054;27;20114;-64
2023/07/21 01:52:30;;;;;;;5.55;3.40;;;;;;;;;;5103012;27;20047;-63
2023/07/21 01:54:59;;;;;;;3.63;3.33;;;;;;;;;;5091017;27;20054;-65
2023/07/21 01:57:31;;;;;;;8.48;3.80;;;;;;;;;;5104683;27;20056;-66
2023/07/21 01:59:59;;;;;;;4.90;3.85;;;;;;;;;;5090398;27;20094;-63
2023/07/21 02:02:26;;;;;;;4.80;3.40;;;;;;;;;;5103922;28;20052;-67
2023/07/21 02:04:53;;;;;;;4.50;3.13;;;;;;;;;;5101613;27;20059;-66
2023/07/21 02:07:22;;;;;;;4.28;3.80;;;;;;;;;;5102318;27;20481;-64
2023/07/21 02:09:52;;;;;;;5.72;3.72;;;;;;;;;;5096882;28;20048;-63
2023/07/21 02:12:19;;;;;;;5.80;3.45;;;;;;;;;;5068580;28;20401;-66
2023/07/21 02:14:45;;;;;;;4.05;3.60;;;;;;;;;;5081929;28;20049;-67
2023/07/21 02:17:11;;;;;;;3.65;2.85;;;;;;;;;;5082216;28;20545;-65
2023/07/21 02:19:38;;;;;;;3.90;3.47;;;;;;;;;;5081588;28;20728;-66
2023/07/21 02:22:05;;;;;;;5.75;3.90;;;;;;;;;;5076649;28;20057;-66
2023/07/21 02:24:31;;;;;;;3.80;3.33;;;;;;;;;;5063826;28;20052;-67
2023/07/21 02:27:01;;;;;;;4.07;3.20;;;;;;;;;;5078803;28;20064;-65
2023/07/21 02:29:28;;;;;;;5.35;3.40;;;;;;;;;;5080227;28;20076;-67
2023/07/21 02:31:54;;;;;;;5.07;3.22;;;;;;;;;;5068405;28;20601;-64
2023/07/21 02:34:21;;;;;;;4.80;3.20;;;;;;;;;;5076147;28;20055;-64
2023/07/21 02:36:47;;;;;;;3.97;3.22;;;;;;;;;;5081285;28;20053;-67
2023/07/21 02:39:13;;;;;;;4.07;3.67;;;;;;;;;;5082033;28;20435;-66
2023/07/21 02:41:41;;;;;;;4.00;3.60;;;;;;;;;;5081021;28;20068;-63
2023/07/21 02:44:09;;;;;;;4.80;3.72;;;;;;;;;;5070879;28;20052;-66
2023/07/21 02:46:36;;;;;;;4.70;3.92;;;;;;;;;;5082185;28;20049;-65
2023/07/21 02:49:03;;;;;;;4.13;3.40;;;;;;;;;;5088955;28;20899;-64
2023/07/21 02:51:29;;;;;;;3.30;3.00;;;;;;;;;;5078168;28;20503;-65
2023/07/21 02:53:56;;;;;;;3.90;3.08;;;;;;;;;;5079687;28;20059;-65
2023/07/21 02:56:22;;;;;;;3.08;2.83;;;;;;;;;;5080172;28;20141;-66
2023/07/21 02:58:49;;;;;;;4.07;2.78;;;;;;;;;;5081966;28;20048;-67
2023/07/21 03:01:17;;;;;;;3.97;2.97;;;;;;;;;;5074870;28;20054;-65
2023/07/21 03:03:44;;;;;;;5.57;2.78;;;;;;;;;;5086931;28;20088;-63
2023/07/21 03:06:11;;;;;;;5.35;2.92;;;;;;;;;;5080021;28;20091;-67
2023/07/21 03:08:38;;;;;;;4.03;2.40;;;;;;;;;;5073501;28;20056;-65
2023/07/21 03:11:05;;;;;;;3.08;2.83;;;;;;;;;;5087384;27;20062;-63
2023/07/21 03:13:32;;;;;;;3.20;2.90;;;;;;;;;;5084349;27;20048;-67
2023/07/21 03:15:58;;;;;;;4.85;2.97;;;;;;;;;;5083799;27;20283;-64
2023/07/21 03:18:27;;;;;;;4.40;2.97;;;;;;;;;;5105970;27;20055;-64
2023/07/21 03:20:57;;;;;;;3.80;2.63;;;;;;;;;;5085074;27;20055;-67
2023/07/21 03:23:23;;;;;;;3.60;3.30;;;;;;;;;;5103257;27;20399;-67
2023/07/21 03:25:49;;;;;;;3.42;2.90;;;;;;;;;;5102916;28;20079;-60
2023/07/21 03:28:16;;;;;;;3.83;2.78;;;;;;;;;;5086065;27;20171;-66
2023/07/21 03:30:43;;;;;;;2.78;2.58;;;;;;;;;;5094298;27;20055;-66
2023/07/21 03:33:09;;;;;;;2.78;2.58;;;;;;;;;;5114129;27;20054;-61
2023/07/21 03:35:36;;;;;;;3.13;2.83;;;;;;;;;;5097816;27;20203;-67
2023/07/21 03:38:03;;;;;;;3.05;2.67;;;;;;;;;;5102366;27;20179;-66
2023/07/21 03:40:29;;;;;;;3.72;2.83;;;;;;;;;;5111505;27;20905;-65
2023/07/21 03:42:55;;;;;;;3.03;2.58;;;;;;;;;;5105933;27;20189;-63
2023/07/21 03:45:23;;;;;;;3.05;2.70;;;;;;;;;;5101185;27;20360;-67
2023/07/21 03:47:49;;;;;;;3.45;3.10;;;;;;;;;;5105023;27;20102;-67
2023/07/21 03:50:16;;;;;;;5.57;2.97;;;;;;;;;;5103176;28;20052;-64
2023/07/21 03:52:42;;;;;;;3.58;2.92;;;;;;;;;;5098898;27;20053;-66
2023/07/21 03:55:09;;;;;;;5.47;2.85;;;;;;;;;;5100748;28;20390;-63
2023/07/21 03:57:36;;;;;;;2.72;2.53;;;;;;;;;;5106563;27;20059;-64
2023/07/21 04:00:05;;;;;;;3.17;2.88;;;;;;;;;;5112740;27;21024;-65
2023/07/21 04:02:32;;;;;;;4.05;3.05;;;;;;;;;;5111022;27;20062;-64
2023/07/21 04:04:58;;;;;;;4.15;2.65;;;;;;;;;;5104356;28;20232;-64
2023/07/21 04:07:25;;;;;;;2.95;2.75;;;;;;;;;;5106128;27;20047;-63
2023/07/21 04:09:51;;;;;;;3.05;2.55;;;;;;;;;;5099365;27;20135;-66
2023/07/21 04:12:18;;;;;;;3.97;2.60;;;;;;;;;;5106695;27;20078;-63
2023/07/21 04:14:44;;;;;;;3.00;2.70;;;;;;;;;;5102739;27;20422;-66
2023/07/21 04:17:11;;;;;;;4.65;3.10;;;;;;;;;;5099612;27;20528;-67
2023/07/21 04:19:38;;;;;;;3.00;2.70;;;;;;;;;;5104897;27;20052;-66
2023/07/21 04:22:04;;;;;;;3.42;3.10;;;;;;;;;;5102143;27;20072;-63
2023/07/21 04:24:30;;;;;;;3.05;2.50;;;;;;;;;;5099149;27;20052;-64
2023/07/21 04:26:57;;;;;;;3.75;2.70;;;;;;;;;;5088960;27;20775;-66
2023/07/21 04:29:24;;;;;;;4.05;2.60;;;;;;;;;;5104512;27;20055;-64
2023/07/21 04:32:02;;;;;;;2.83;2.38;;;;;;;;;;5089415;27;20087;-64
2023/07/21 04:34:30;;;;;;;3.05;2.75;;;;;;;;;;5091895;27;20538;-63
2023/07/21 04:36:57;;;;;;;3.00;2.70;;;;;;;;;;5119688;27;20052;-66
2023/07/21 04:39:23;;;;;;;3.95;2.80;;;;;;;;;;5104916;27;20059;-63
2023/07/21 04:41:50;;;;;;;3.60;2.95;;;;;;;;;;5098303;27;20056;-62
2023/07/21 04:44:16;;;;;;;3.70;3.40;;;;;;;;;;5095922;27;20113;-66
2023/07/21 04:46:43;;;;;;;6.18;3.03;;;;;;;;;;5101283;27;20517;-64
2023/07/21 04:49:13;;;;;;;6.40;3.25;;;;;;;;;;5096914;27;21011;-64
2023/07/21 04:51:39;;;;;;;3.75;3.35;;;;;;;;;;5093905;27;20086;-62
2023/07/21 04:54:05;;;;;;;5.35;3.40;;;;;;;;;;5097473;27;20629;-66
2023/07/21 04:56:32;;;;;;;4.25;3.60;;;;;;;;;;5102473;27;20059;-66
2023/07/21 04:58:58;;;;;;;3.15;2.85;;;;;;;;;;5101482;27;20049;-65
2023/07/21 05:01:25;;;;;;;4.40;3.40;;;;;;;;;;5104778;28;20598;-66
2023/07/21 05:03:51;;;;;;;4.85;3.10;;;;;;;;;;5098315;27;20052;-63
2023/07/21 05:06:18;;;;;;;4.63;2.78;;;;;;;;;;5093614;27;20139;-62
2023/07/21 05:08:44;;;;;;;7.50;4.18;;;;;;;;;;5100023;27;20074;-61
2023/07/21 05:11:11;;;;;;;3.78;3.40;;;;;;;;;;5087922;27;20518;-63
2023/07/21 05:13:37;;;;;;;4.72;3.13;;;;;;;;;;5095168;27;20538;-65
2023/07/21 05:16:04;;;;;;;4.45;3.58;;;;;;;;;;5088226;27;20059;-61
2023/07/21 05:18:30;;;;;;;4.00;3.30;;;;;;;;;;5101116;27;20092;-66
2023/07/21 05:20:57;;;;;;;4.57;3.03;;;;;;;;;;5088558;27;20055;-61
2023/07/21 05:23:24;;;;;;;3.17;2.88;;;;;;;;;;5092096;27;20079;-64
2023/07/21 05:25:57;;;;;;;6.25;3.33;;;;;;;;;;5091165;27;20048;-68
2023/07/21 05:28:24;;;;;;;3.60;2.90;;;;;;;;;;5099953;27;20056;-64
2023/07/21 05:30:50;;;;;;;5.82;2.92;;;;;;;;;;5104434;27;20080;-67
2023/07/21 05:33:16;;;;;;;3.28;2.90;;;;;;;;;;5096910;27;20583;-67
2023/07/21 05:35:43;;;;;;;5.53;2.90;;;;;;;;;;5086083;27;20105;-66
2023/07/21 05:38:10;;;;;;;6.35;3.30;;;;;;;;;;5104030;27;20060;-67
2023/07/21 05:40:36;;;;;;;6.65;3.05;;;;;;;;;;5094010;27;20060;-65
2023/07/21 05:43:04;;;;;;;8.18;2.80;;;;;;;;;;5103917;28;20052;-63
2023/07/21 05:45:30;;;;;;;3.45;2.38;;;;;;;;;;5098550;27;20164;-64
2023/07/21 05:47:56;;;;;;;7.63;2.47;;;;;;;;;;5104326;28;20079;-66
2023/07/21 05:50:23;;;;;;;2.72;2.50;;;;;;;;;;5094240;27;20052;-66
2023/07/21 05:52:53;;;;;;;4.32;2.60;;;;;;;;;;5113742;27;20060;-67
2023/07/21 05:55:20;;;;;;;3.22;2.70;;;;;;;;;;5093954;27;20140;-66
2023/07/21 05:57:46;;;;;;;6.35;2.53;;;;;;;;;;5103269;27;20060;-67
2023/07/21 06:00:15;;;;;;;3.00;2.45;;;;;;;;;;5093199;27;20462;-65
2023/07/21 06:02:41;;;;;;;4.65;2.30;;;;;;;;;;5106943;27;20060;-66
2023/07/21 06:05:08;;;;;;;3.63;1.90;;;;;;;;;;5103907;27;20078;-66
2023/07/21 06:07:34;;;;;;;4.78;2.15;;;;;;;;;;5101763;27;20168;-66
2023/07/21 06:10:08;;;;;;;3.58;2.15;;;;;;;;;;5096570;27;20148;-63
2023/07/21 06:12:35;;;;;;;3.92;1.73;;;;;;;;;;5083424;28;20430;-66
2023/07/21 06:15:01;;;;;;;4.05;1.92;;;;;;;;;;5087710;27;20059;-67
2023/07/21 06:17:28;;;;;;;2.95;2.22;;;;;;;;;;5101193;27;20107;-67
2023/07/21 06:19:56;;;;;;;2.90;1.90;;;;;;;;;;5084224;27;20067;-66
2023/07/21 06:22:25;;;;;;;2.10;1.70;;;;;;;;;;5083899;28;20082;-64
2023/07/21 06:24:52;;;;;;;5.30;1.80;;;;;;;;;;5088614;27;21101;-67
2023/07/21 06:27:18;;;;;;;3.20;1.90;;;;;;;;;;5106231;27;20062;-65
2023/07/21 06:29:45;;;;;;;1.38;1.27;;;;;;;;;;5095488;27;20605;-67
2023/07/21 06:32:11;;;;;;;3.58;1.63;;;;;;;;;;5107872;27;20055;-64
2023/07/21 06:34:37;;;;;;;2.47;1.48;;;;;;;;;;5104268;27;20062;-64
2023/07/21 06:37:04;;;;;;;2.25;1.70;;;;;;;;;;5111734;27;20465;-64
2023/07/21 06:39:31;;;;;;;4.22;1.92;;;;;;;;;;5091108;27;20075;-62
2023/07/21 06:41:57;;;;;;;2.13;1.75;;;;;;;;;;5100309;27;20056;-61
2023/07/21 06:44:24;;;;;;;2.10;1.67;;;;;;;;;;5103374;27;20054;-63
2023/07/21 06:46:52;;;;;;;1.75;1.65;;;;;;;;;;5104467;27;20529;-65
2023/07/21 06:49:19;;;;;;;2.08;1.88;;;;;;;;;;5104639;27;20501;-62
2023/07/21 06:51:45;;;;;;;3.30;1.58;;;;;;;;;;5090891;27;20053;-63
2023/07/21 06:54:11;;;;;;;2.30;2.10;;;;;;;;;;5082872;27;20088;-63
2023/07/21 06:56:38;;;;;;;2.97;1.92;;;;;;;;;;5067157;28;20052;-64
2023/07/21 06:59:05;;;;;;;3.13;2.10;;;;;;;;;;5097408;27;20052;-61
2023/07/21 07:01:32;;;;;;;2.95;1.95;;;;;;;;;;5091209;27;20044;-62
2023/07/21 07:03:59;;;;;;;2.88;1.40;;;;;;;;;;5099570;27;20060;-60
2023/07/21 07:06:28;;;;;;;1.52;1.33;;;;;;;;;;5102203;27;20139;-62
2023/07/21 07:08:55;;;;;;;6.78;1.63;;;;;;;;;;5106435;27;20055;-62
2023/07/21 07:11:22;;;;;;;1.00;1.00;;;;;;;;;;5104391;27;20151;-65
2023/07/21 07:13:49;;;;;;;2.55;1.25;;;;;;;;;;5097021;27;20532;-63
2023/07/21 07:16:15;;;;;;;2.97;1.17;;;;;;;;;;5104805;27;20453;-63
2023/07/21 07:18:41;;;;;;;1.88;1.17;;;;;;;;;;5106435;27;20580;-65
2023/07/21 07:21:08;;;;;;;2.28;1.20;;;;;;;;;;5125554;27;20097;-65
2023/07/21 07:23:34;;;;;;;1.90;1.20;;;;;;;;;;5127713;27;20524;-65
2023/07/21 07:26:01;;;;;;;2.88;1.20;;;;;;;;;;5127076;27;20134;-62
2023/07/21 07:28:28;;;;;;;1.95;1.13;;;;;;;;;;5126883;27;20062;-64
2023/07/21 07:30:55;;;;;;;1.48;1.20;;;;;;;;;;5127243;27;20850;-64
2023/07/21 07:33:21;;;;;;;1.20;1.10;;;;;;;;;;5127478;27;20142;-64
2023/07/21 07:35:48;;;;;;;1.10;1.00;;;;;;;;;;5127155;27;20062;-64
2023/07/21 07:38:19;;;;;;;3.17;1.45;;;;;;;;;;5127020;27;20547;-64
2023/07/21 07:40:47;;;;;;;3.22;1.25;;;;;;;;;;5126918;27;20140;-63
2023/07/21 07:43:13;;;;;;;3.10;1.17;;;;;;;;;;5101618;27;20079;-64
2023/07/21 07:45:40;;;;;;;1.63;1.42;;;;;;;;;;5085697;28;20820;-64
2023/07/21 07:48:09;;;;;;;2.80;1.83;;;;;;;;;;5087178;28;20048;-65
2023/07/21 07:50:40;;;;;;;1.33;1.20;;;;;;;;;;5102223;28;20143;-65
2023/07/21 07:53:06;;;;;;;1.20;1.05;;;;;;;;;;5106780;28;20179;-62
2023/07/21 07:55:36;;;;;;;1.20;1.10;;;;;;;;;;5106302;27;20084;-65
2023/07/21 07:58:04;;;;;;;5.68;1.40;;;;;;;;;;5127211;27;20055;-59
2023/07/21 08:00:30;;;;;;;1.20;1.10;;;;;;;;;;5107194;27;20055;-63
2023/07/21 08:02:56;;;;;;;2.50;1.20;;;;;;;;;;5114655;27;20052;-64
2023/07/21 08:05:23;;;;;;;2.17;1.20;;;;;;;;;;5126508;27;20055;-66
2023/07/21 08:07:49;;;;;;;1.00;1.00;;;;;;;;;;5104875;27;20541;-64
2023/07/21 08:10:16;;;;;;;1.98;1.17;;;;;;;;;;5105196;27;20060;-64
2023/07/21 08:12:42;;;;;;;1.60;1.02;;;;;;;;;;5105413;27;20435;-64
2023/07/21 08:15:09;;;;;;;1.95;1.23;;;;;;;;;;5105850;27;20506;-65
2023/07/21 08:17:36;;;;;;;1.27;1.10;;;;;;;;;;5106376;27;20128;-66
2023/07/21 08:20:04;;;;;;;1.30;1.00;;;;;;;;;;5094590;27;20076;-60
2023/07/21 08:22:30;;;;;;;1.67;0.88;;;;;;;;;;5086142;28;20499;-66
2023/07/21 08:24:57;;;;;;;2.78;1.00;;;;;;;;;;5084747;28;20612;-64
2023/07/21 08:27:25;;;;;;;1.45;1.20;;;;;;;;;;5085506;28;20079;-63
2023/07/21 08:29:52;;;;;;;1.00;0.90;;;;;;;;;;5101317;27;20052;-66
2023/07/21 08:32:18;;;;;;;4.43;1.10;;;;;;;;;;5111994;27;20059;-65
2023/07/21 08:34:45;;;;;;;1.58;1.02;;;;;;;;;;5126150;27;20532;-62
2023/07/21 08:37:12;;;;;;;1.33;0.88;;;;;;;;;;5126532;27;20155;-65
2023/07/21 08:39:38;;;;;;;1.10;0.80;;;;;;;;;;5124750;27;20048;-65
2023/07/21 08:42:08;;;;;;;0.95;0.95;;;;;;;;;;5126403;27;20120;-60
2023/07/21 08:44:34;;;;;;;4.38;1.17;;;;;;;;;;5114755;27;20059;-61
2023/07/21 08:47:01;;;;;;;2.35;0.93;;;;;;;;;;5106440;27;20052;-65
2023/07/21 08:49:28;;;;;;;1.00;0.93;;;;;;;;;;5105942;27;20047;-65
2023/07/21 08:51:55;;;;;;;1.38;0.90;;;;;;;;;;5105573;28;20048;-64
2023/07/21 08:54:21;;;;;;;2.70;1.17;;;;;;;;;;5108510;27;20051;-65
2023/07/21 08:56:47;;;;;;;1.88;0.82;;;;;;;;;;5125983;27;20123;-65
2023/07/21 08:59:14;;;;;;;2.25;1.10;;;;;;;;;;5115622;27;20066;-61
2023/07/21 09:01:40;;;;;;;2.38;1.05;;;;;;;;;;5104858;27;20056;-65
2023/07/21 09:04:18;;;;;;;5.45;1.42;;;;;;;;;;5104933;27;20056;-66
2023/07/21 09:06:52;;;;;;;2.03;1.20;;;;;;;;;;5104942;28;20105;-64
2023/07/21 09:09:19;;;;;;;1.42;0.90;;;;;;;;;;5108312;27;20064;-61
2023/07/21 09:11:46;;;;;;;1.08;0.90;;;;;;;;;;5107717;27;20052;-64
2023/07/21 09:14:13;;;;;;;1.23;0.98;;;;;;;;;;5110515;27;20060;-60
2023/07/21 09:16:40;;;;;;;2.83;1.52;;;;;;;;;;5105516;28;20091;-64
2023/07/21 09:19:07;;;;;;;2.88;1.20;;;;;;;;;;5105304;27;20052;-62
2023/07/21 09:21:35;;;;;;;1.40;1.30;;;;;;;;;;5105330;28;20105;-63
2023/07/21 09:24:03;;;;;;;1.15;1.05;;;;;;;;;;5096361;27;20528;-63
2023/07/21 09:26:29;;;;;;;1.88;1.23;;;;;;;;;;5110892;27;20140;-61
2023/07/21 09:28:56;;;;;;;1.30;1.20;;;;;;;;;;5136652;27;20553;-66
2023/07/21 09:31:29;;;;;;;3.78;1.52;;;;;;;;;;5112936;27;20331;-63
2023/07/21 09:34:04;;;;;;;1.30;1.10;;;;;;;;;;5104728;28;20051;-62
2023/07/21 09:36:30;;;;;;;2.05;1.45;;;;;;;;;;5107484;27;20589;-63
2023/07/21 09:39:00;;;;;;;1.48;1.13;;;;;;;;;;5105697;27;20084;-63
2023/07/21 09:41:30;;;;;;;2.67;0.90;;;;;;;;;;5112358;27;20589;-62
2023/07/21 09:43:56;;;;;;;1.25;0.90;;;;;;;;;;5113615;27;20590;-63
2023/07/21 09:46:23;;;;;;;1.30;0.90;;;;;;;;;;5102364;27;20066;-63
2023/07/21 09:48:49;;;;;;;1.10;1.00;;;;;;;;;;5104545;27;20062;-63
2023/07/21 09:51:17;;;;;;;1.08;0.98;;;;;;;;;;5106378;27;20048;-63
2023/07/21 09:53:43;;;;;;;3.40;1.52;;;;;;;;;;5106149;27;20120;-62
2023/07/21 09:56:11;;;;;;;1.42;0.98;;;;;;;;;;5106566;27;20386;-62
2023/07/21 09:58:40;;;;;;;1.30;0.70;;;;;;;;;;5101661;28;20048;-64
2023/07/21 10:01:09;;;;;;;0.93;0.80;;;;;;;;;;5104688;27;20171;-63
2023/07/21 10:03:36;;;;;;;1.83;1.10;;;;;;;;;;5104442;27;20048;-64
2023/07/21 10:06:04;;;;;;;1.52;0.93;;;;;;;;;;5096079;27;20538;-63
2023/07/21 10:08:33;;;;;;;1.23;0.60;;;;;;;;;;5124635;27;20597;-62
2023/07/21 10:11:00;;;;;;;0.73;0.73;;;;;;;;;;5124722;27;20048;-63
2023/07/21 10:13:27;;;;;;;0.63;0.63;;;;;;;;;;5124942;27;20475;-63
2023/07/21 10:16:01;;;;;;;0.80;0.60;;;;;;;;;;5124645;27;20138;-63
2023/07/21 10:18:27;;;;;;;0.82;0.65;;;;;;;;;;5124527;27;20052;-64
2023/07/21 10:20:55;;;;;;;0.73;0.73;;;;;;;;;;5122080;27;20075;-63
2023/07/21 10:23:24;;;;;;;1.23;0.70;;;;;;;;;;5089575;27;20048;-64
2023/07/21 10:25:50;;;;;;;0.70;0.60;;;;;;;;;;5083396;28;20060;-62
2023/07/21 10:28:24;;;;;;;1.50;0.93;;;;;;;;;;5083887;28;20049;-64
2023/07/21 10:30:50;;;;;;;1.45;0.93;;;;;;;;;;5083836;28;20080;-64
2023/07/21 10:33:18;;;;;;;0.68;0.68;;;;;;;;;;5083399;27;20139;-60
2023/07/21 10:35:44;;;;;;;0.95;0.90;;;;;;;;;;5082986;28;20106;-63
2023/07/21 10:38:13;;;;;;;1.60;0.80;;;;;;;;;;5083660;28;20140;-62
2023/07/21 10:40:46;;;;;;;1.00;0.70;;;;;;;;;;5083838;28;20516;-64
2023/07/21 10:43:12;;;;;;;0.90;0.88;;;;;;;;;;5089632;27;20083;-62
2023/07/21 10:45:39;;;;;;;1.45;0.93;;;;;;;;;;5107515;27;20144;-61
2023/07/21 10:48:11;;;;;;;0.98;0.80;;;;;;;;;;5124472;27;20063;-62
2023/07/21 10:50:41;;;;;;;0.73;0.68;;;;;;;;;;5124226;27;20100;-63
2023/07/21 10:53:08;;;;;;;1.10;0.95;;;;;;;;;;5124158;27;20059;-63
2023/07/21 10:55:39;;;;;;;1.27;0.70;;;;;;;;;;5120710;27;20052;-61
2023/07/21 10:58:06;;;;;;;1.00;0.80;;;;;;;;;;5120763;27;20052;-62
2023/07/21 11:00:46;;;;;;;2.20;0.80;;;;;;;;;;5124107;27;20066;-63
2023/07/21 11:03:12;;;;;;;3.40;0.85;;;;;;;;;;5124318;27;20499;-64
2023/07/21 11:05:39;;;;;;;1.13;1.05;;;;;;;;;;5123908;27;20051;-64
2023/07/21 11:08:09;;;;;;;1.60;1.00;;;;;;;;;;5123783;27;20059;-64
2023/07/21 11:10:36;;;;;;;1.05;0.80;;;;;;;;;;5120051;27;20411;-64
2023/07/21 11:13:07;;;;;;;0.88;0.80;;;;;;;;;;5066076;28;20059;-63
2023/07/21 11:15:33;;;;;;;1.63;1.30;;;;;;;;;;5083613;28;20114;-63
2023/07/21 11:18:01;;;;;;;1.02;1.02;;;;;;;;;;5082905;28;20053;-64
2023/07/21 11:20:27;;;;;;;2.10;1.10;;;;;;;;;;5083174;28;20080;-64
2023/07/21 11:22:54;;;;;;;1.85;1.30;;;;;;;;;;5082859;28;20135;-61
2023/07/21 11:25:20;;;;;;;2.03;1.20;;;;;;;;;;5098273;27;20047;-69
2023/07/21 11:27:48;;;;;;;1.75;1.38;;;;;;;;;;5097128;27;20434;-64
2023/07/21 11:30:18;;;;;;;2.25;1.00;;;;;;;;;;5082267;28;20135;-62
2023/07/21 11:32:45;;;;;;;1.35;1.00;;;;;;;;;;5063691;28;20056;-62
2023/07/21 11:35:11;;;;;;;1.10;1.00;;;;;;;;;;5082619;28;20083;-63
2023/07/21 11:37:45;;;;;;;1.48;1.10;;;;;;;;;;5081979;28;20076;-63
2023/07/21 11:40:15;;;;;;;1.00;0.82;;;;;;;;;;5088687;27;20648;-62
2023/07/21 11:42:45;;;;;;;1.42;1.17;;;;;;;;;;5082450;28;20151;-63
2023/07/21 11:45:34;;;;;;;1.77;1.20;;;;;;;;;;5092636;28;20051;-65
2023/07/21 11:48:22;;;;;;;0.95;0.95;;;;;;;;;;5087332;28;20055;-62
2023/07/21 11:50:54;;;;;;;3.20;1.23;;;;;;;;;;5116104;27;20052;-61
2023/07/21 11:53:22;;;;;;;0.95;0.90;;;;;;;;;;5117671;27;20544;-61
2023/07/21 11:55:49;;;;;;;0.85;0.82;;;;;;;;;;5115257;27;20063;-62
2023/07/21 11:58:15;;;;;;;0.73;0.73;;;;;;;;;;5122900;27;20612;-62
2023/07/21 12:00:42;;;;;;;1.17;1.08;;;;;;;;;;5123194;27;20056;-61
2023/07/21 12:03:09;;;;;;;6.07;1.10;;;;;;;;;;5123343;27;20614;-64
2023/07/21 12:05:35;;;;;;;1.50;1.10;;;;;;;;;;5123583;27;20581;-63
2023/07/21 12:08:03;;;;;;;3.88;1.02;;;;;;;;;;5126624;27;20066;-63
2023/07/21 12:10:30;;;;;;;1.52;1.08;;;;;;;;;;5105219;27;20523;-63
2023/07/21 12:12:56;;;;;;;1.27;1.15;;;;;;;;;;5085520;27;20048;-61
2023/07/21 12:15:23;;;;;;;1.23;0.80;;;;;;;;;;5101273;28;20499;-63
2023/07/21 12:17:49;;;;;;;2.75;1.20;;;;;;;;;;5105516;28;20556;-63
2023/07/21 12:20:17;;;;;;;1.42;1.38;;;;;;;;;;5098104;27;20486;-62
2023/07/21 12:22:43;;;;;;;1.27;1.17;;;;;;;;;;5101008;27;20052;-63
2023/07/21 12:25:10;;;;;;;1.33;1.10;;;;;;;;;;5100878;27;20147;-62
2023/07/21 12:27:37;;;;;;;0.95;0.93;;;;;;;;;;5091604;27;20065;-64
2023/07/21 12:30:07;;;;;;;1.80;1.30;;;;;;;;;;5087037;28;20056;-63
2023/07/21 12:32:34;;;;;;;1.23;1.10;;;;;;;;;;5103973;27;20497;-61
2023/07/21 12:35:01;;;;;;;1.40;1.30;;;;;;;;;;5116328;27;20106;-61
2023/07/21 12:37:28;;;;;;;2.05;1.50;;;;;;;;;;5105607;28;20052;-63
2023/07/21 12:39:55;;;;;;;1.40;0.90;;;;;;;;;;5111136;27;20087;-63
2023/07/21 12:42:21;;;;;;;1.02;1.00;;;;;;;;;;5111814;27;20171;-60
2023/07/21 12:44:48;;;;;;;3.53;1.00;;;;;;;;;;5103150;27;20087;-63
2023/07/21 12:47:14;;;;;;;1.55;1.00;;;;;;;;;;5104055;27;20056;-61
2023/07/21 12:49:41;;;;;;;1.08;0.98;;;;;;;;;;5104797;27;20140;-62
2023/07/21 12:52:07;;;;;;;1.30;0.82;;;;;;;;;;5103392;27;20052;-62
2023/07/21 12:54:34;;;;;;;1.10;1.00;;;;;;;;;;5104577;27;20129;-62
2023/07/21 12:57:00;;;;;;;2.70;1.10;;;;;;;;;;5105014;28;20497;-61
2023/07/21 12:59:27;;;;;;;1.20;1.10;;;;;;;;;;5113690;27;20651;-64
2023/07/21 13:01:54;;;;;;;0.82;0.75;;;;;;;;;;5104486;27;20056;-62
2023/07/21 13:04:20;;;;;;;2.03;1.00;;;;;;;;;;5116987;27;20059;-62
2023/07/21 13:06:47;;;;;;;1.05;1.02;;;;;;;;;;5104846;28;20183;-63
2023/07/21 13:09:14;;;;;;;1.77;1.20;;;;;;;;;;5102701;27;20098;-62
2023/07/21 13:11:41;;;;;;;2.30;1.00;;;;;;;;;;5090365;27;20240;-62
2023/07/21 13:14:07;;;;;;;1.92;1.23;;;;;;;;;;5105411;28;20137;-63
2023/07/21 13:16:33;;;;;;;0.80;0.80;;;;;;;;;;5097986;27;20049;-61
2023/07/21 13:19:00;;;;;;;0.90;0.90;;;;;;;;;;5102406;27;20606;-61
2023/07/21 13:21:27;;;;;;;0.90;0.90;;;;;;;;;;5103959;27;20063;-62
2023/07/21 13:23:53;;;;;;;1.23;1.13;;;;;;;;;;5104192;27;20566;-62
2023/07/21 13:26:19;;;;;;;0.85;0.85;;;;;;;;;;5104017;28;20056;-61
2023/07/21 13:28:46;;;;;;;1.23;1.10;;;;;;;;;;5103994;28;20135;-64
2023/07/21 13:31:12;;;;;;;1.08;0.93;;;;;;;;;;5105576;27;22099;-63
2023/07/21 13:33:39;;;;;;;1.35;1.25;;;;;;;;;;5104202;28;20234;-61
2023/07/21 13:36:05;;;;;;;1.42;1.33;;;;;;;;;;5103924;27;20056;-63
2023/07/21 13:38:33;;;;;;;1.30;1.20;;;;;;;;;;5104728;28;20550;-63
2023/07/21 13:41:02;;;;;;;1.38;1.27;;;;;;;;;;5103597;27;20052;-62
2023/07/21 13:43:29;;;;;;;3.20;1.25;;;;;;;;;;5104380;28;20577;-63
2023/07/21 13:45:55;;;;;;;1.20;1.10;;;;;;;;;;5105038;27;20047;-63
2023/07/21 13:48:22;;;;;;;1.67;1.30;;;;;;;;;;5102466;27;20695;-62
2023/07/21 13:50:48;;;;;;;1.50;1.38;;;;;;;;;;5105066;27;20534;-66
2023/07/21 13:53:15;;;;;;;2.55;1.70;;;;;;;;;;5102339;27;20052;-62
2023/07/21 13:55:41;;;;;;;2.85;1.60;;;;;;;;;;5103584;27;20056;-66
2023/07/21 13:58:07;;;;;;;2.88;1.65;;;;;;;;;;5101628;27;20048;-63
2023/07/21 14:00:35;;;;;;;6.10;2.30;;;;;;;;;;5102716;27;20056;-65
2023/07/21 14:03:02;;;;;;;5.30;2.55;;;;;;;;;;5103931;27;20044;-62
2023/07/21 14:05:30;;;;;;;2.90;2.25;;;;;;;;;;5085859;27;20056;-67
2023/07/21 14:07:56;;;;;;;6.47;2.63;;;;;;;;;;5102561;27;20509;-64
2023/07/21 14:10:22;;;;;;;4.47;2.47;;;;;;;;;;5103223;28;20497;-67
2023/07/21 14:12:50;;;;;;;5.00;3.28;;;;;;;;;;5102414;28;20060;-63
2023/07/21 14:15:18;;;;;;;5.20;3.38;;;;;;;;;;5101176;27;20048;-64
2023/07/21 14:17:45;;;;;;;9.15;3.67;;;;;;;;;;5102582;27;20059;-66
2023/07/21 14:20:16;;;;;;;6.03;3.25;;;;;;;;;;5106620;27;20071;-66
2023/07/21 14:22:43;;;;;;;3.92;3.00;;;;;;;;;;5097649;27;20454;-66
2023/07/21 14:25:09;;;;;;;3.95;3.45;;;;;;;;;;5106329;27;20075;-63
2023/07/21 14:27:36;;;;;;;4.72;3.70;;;;;;;;;;5102976;28;20202;-67
2023/07/21 14:30:06;;;;;;;4.85;3.22;;;;;;;;;;5100444;27;20048;-66
2023/07/21 14:32:32;;;;;;;5.10;3.88;;;;;;;;;;5098234;27;20442;-64
2023/07/21 14:34:59;;;;;;;4.90;3.40;;;;;;;;;;5096163;27;20055;-64
2023/07/21 14:37:25;;;;;;;7.70;5.00;;;;;;;;;;5098062;27;20129;-63
2023/07/21 14:39:52;;;;;;;6.40;4.50;;;;;;;;;;5103190;27;20052;-65
2023/07/21 14:42:18;;;;;;;5.53;4.20;;;;;;;;;;5102629;27;20164;-63
2023/07/21 14:44:46;;;;;;;4.65;3.88;;;;;;;;;;5101635;28;20059;-63